Tidewater, Oregon
Current Conditions -  °F | °C
As of 1:35 PM on Wednesday 26 Nov 2014 (Local Time) from KONP Reporting Station
Clear Clear  
Wind Chill: 61°   Ceiling: Unl
Heat Index: 61°   Visibility: 10mi
Dew Point: 54°   Wind: 15mph
Humidity: 77%   Direction: 200°SSW
Pressure: 30.11"   Gusts: 18mph
Location:  44.41°N, 123.9°W
Report Text: KONP 262135Z AUTO 20013G16KT 10SM CLR 16/12 A3011 RMK AO2
Loading
Personal Weather Stations






























Interactive Weather Map New forecast layout! Learn more

10-Day Weather Forecast

Advertisements
Track Severe Weather on mobile